sensor_id;sensor_type;location;lat;lon;timestamp;pressure;altitude;pressure_sealevel;temperature;humidity
13011;BME280;6786;57.632;11.962;2023-11-21T00:01:22;101024.06;;;18.78;40.36
13011;BME280;6786;57.632;11.962;2023-11-21T00:03:51;101019.56;;;18.78;40.24
13011;BME280;6786;57.632;11.962;2023-11-21T00:06:21;101024.06;;;18.78;40.22
13011;BME280;6786;57.632;11.962;2023-11-21T00:08:49;101018.69;;;18.78;40.21
13011;BME280;6786;57.632;11.962;2023-11-21T00:11:17;101028.44;;;18.79;40.31
13011;BME280;6786;57.632;11.962;2023-11-21T00:13:46;101031.13;;;18.79;40.30
13011;BME280;6786;57.632;11.962;2023-11-21T00:16:16;101038.19;;;18.80;40.25
13011;BME280;6786;57.632;11.962;2023-11-21T00:18:45;101031.13;;;18.79;40.30
13011;BME280;6786;57.632;11.962;2023-11-21T00:21:15;101031.97;;;18.79;40.19
13011;BME280;6786;57.632;11.962;2023-11-21T00:23:43;101035.50;;;18.80;40.26
13011;BME280;6786;57.632;11.962;2023-11-21T00:26:11;101036.50;;;18.79;40.37
13011;BME280;6786;57.632;11.962;2023-11-21T00:28:41;101039.03;;;18.80;40.25
13011;BME280;6786;57.632;11.962;2023-11-21T00:31:09;101040.84;;;18.80;40.36
13011;BME280;6786;57.632;11.962;2023-11-21T00:33:37;101034.75;;;18.78;40.31
13011;BME280;6786;57.632;11.962;2023-11-21T00:36:06;101037.31;;;18.79;40.29
13011;BME280;6786;57.632;11.962;2023-11-21T00:38:37;101047.19;;;18.79;40.28
13011;BME280;6786;57.632;11.962;2023-11-21T00:41:07;101048.88;;;18.80;40.31
13011;BME280;6786;57.632;11.962;2023-11-21T00:43:35;101049.75;;;18.80;40.29
13011;BME280;6786;57.632;11.962;2023-11-21T00:46:04;101055.94;;;18.81;40.24
13011;BME280;6786;57.632;11.962;2023-11-21T00:48:34;101063.97;;;18.81;40.35
13011;BME280;6786;57.632;11.962;2023-11-21T00:51:02;101061.53;;;18.78;40.32
13011;BME280;6786;57.632;11.962;2023-11-21T00:53:30;101065.81;;;18.80;40.32
13011;BME280;6786;57.632;11.962;2023-11-21T00:56:00;101073.00;;;18.80;40.24
13011;BME280;6786;57.632;11.962;2023-11-21T00:58:29;101068.63;;;18.79;40.25
13011;BME280;6786;57.632;11.962;2023-11-21T01:00:58;101070.31;;;18.80;40.22
13011;BME280;6786;57.632;11.962;2023-11-21T01:03:26;101080.16;;;18.79;40.30
13011;BME280;6786;57.632;11.962;2023-11-21T01:05:54;101073.13;;;18.78;40.25
13011;BME280;6786;57.632;11.962;2023-11-21T01:08:22;101073.97;;;18.79;40.33
13011;BME280;6786;57.632;11.962;2023-11-21T01:10:51;101070.56;;;18.77;40.40
13011;BME280;6786;57.632;11.962;2023-11-21T01:13:22;101064.97;;;18.80;40.26
13011;BME280;6786;57.632;11.962;2023-11-21T01:15:50;101066.06;;;18.77;40.26
13011;BME280;6786;57.632;11.962;2023-11-21T01:18:18;101080.28;;;18.78;40.38
13011;BME280;6786;57.632;11.962;2023-11-21T01:20:46;101084.69;;;18.79;40.40
13011;BME280;6786;57.632;11.962;2023-11-21T01:23:14;101079.34;;;18.79;40.26
13011;BME280;6786;57.632;11.962;2023-11-21T01:25:43;101085.50;;;18.79;40.39
13011;BME280;6786;57.632;11.962;2023-11-21T01:28:11;101088.19;;;18.79;40.22
13011;BME280;6786;57.632;11.962;2023-11-21T01:30:40;101086.63;;;18.77;40.31
13011;BME280;6786;57.632;11.962;2023-11-21T01:33:08;101086.38;;;18.80;40.31
13011;BME280;6786;57.632;11.962;2023-11-21T01:35:36;101095.41;;;18.79;40.23
13011;BME280;6786;57.632;11.962;2023-11-21T01:38:05;101091.72;;;18.80;40.26
13011;BME280;6786;57.632;11.962;2023-11-21T01:40:34;101098.91;;;18.79;40.29
13011;BME280;6786;57.632;11.962;2023-11-21T01:43:03;101106.09;;;18.79;40.33
13011;BME280;6786;57.632;11.962;2023-11-21T01:45:31;101103.44;;;18.79;40.36
13011;BME280;6786;57.632;11.962;2023-11-21T01:48:02;101116.81;;;18.79;40.30
13011;BME280;6786;57.632;11.962;2023-11-21T01:50:32;101098.06;;;18.79;40.33
13011;BME280;6786;57.632;11.962;2023-11-21T01:53:01;101082.50;;;18.62;40.29
13011;BME280;6786;57.632;11.962;2023-11-21T01:55:30;101111.47;;;18.79;40.24
13011;BME280;6786;57.632;11.962;2023-11-21T01:57:58;101117.66;;;18.79;40.29
13011;BME280;6786;57.632;11.962;2023-11-21T02:00:26;101124.84;;;18.79;40.35
13011;BME280;6786;57.632;11.962;2023-11-21T02:02:56;101124.84;;;18.79;40.31
13011;BME280;6786;57.632;11.962;2023-11-21T02:05:28;101129.47;;;18.77;40.39
13011;BME280;6786;57.632;11.962;2023-11-21T02:07:56;101132.88;;;18.79;40.36
13011;BME280;6786;57.632;11.962;2023-11-21T02:10:25;101138.25;;;18.79;40.32
13011;BME280;6786;57.632;11.962;2023-11-21T02:12:54;101144.44;;;18.79;40.33
13011;BME280;6786;57.632;11.962;2023-11-21T02:15:23;101131.16;;;18.78;40.13
13011;BME280;6786;57.632;11.962;2023-11-21T02:17:55;101132.88;;;18.79;40.29
13011;BME280;6786;57.632;11.962;2023-11-21T02:20:25;101135.69;;;18.77;40.25
13011;BME280;6786;57.632;11.962;2023-11-21T02:22:57;101138.50;;;18.76;40.29
13011;BME280;6786;57.632;11.962;2023-11-21T02:25:27;101141.88;;;18.78;40.23
13011;BME280;6786;57.632;11.962;2023-11-21T02:27:56;101144.56;;;18.78;40.38
13011;BME280;6786;57.632;11.962;2023-11-21T02:30:25;101152.59;;;18.78;40.29
13011;BME280;6786;57.632;11.962;2023-11-21T02:32:55;101159.66;;;18.79;40.28
13011;BME280;6786;57.632;11.962;2023-11-21T02:35:24;101127.56;;;18.57;40.21
13011;BME280;6786;57.632;11.962;2023-11-21T02:37:53;101171.22;;;18.79;40.26
13011;BME280;6786;57.632;11.962;2023-11-21T02:40:24;101169.41;;;18.80;40.35
13011;BME280;6786;57.632;11.962;2023-11-21T02:42:54;101165.03;;;18.79;40.34
13011;BME280;6786;57.632;11.962;2023-11-21T02:45:22;101175.72;;;18.79;40.21
13011;BME280;6786;57.632;11.962;2023-11-21T02:47:52;101172.31;;;18.77;40.23
13011;BME280;6786;57.632;11.962;2023-11-21T02:50:25;101177.44;;;18.80;40.37
13011;BME280;6786;57.632;11.962;2023-11-21T02:52:54;101181.09;;;18.79;40.34
13011;BME280;6786;57.632;11.962;2023-11-21T02:55:25;101182.78;;;18.80;40.30
13011;BME280;6786;57.632;11.962;2023-11-21T02:57:54;101193.50;;;18.80;40.20
13011;BME280;6786;57.632;11.962;2023-11-21T03:00:23;101192.63;;;18.79;40.32
13011;BME280;6786;57.632;11.962;2023-11-21T03:02:54;101145.56;;;18.55;40.07
13011;BME280;6786;57.632;11.962;2023-11-21T03:05:23;101194.34;;;18.80;40.22
13011;BME280;6786;57.632;11.962;2023-11-21T03:07:52;101193.50;;;18.80;40.32
13011;BME280;6786;57.632;11.962;2023-11-21T03:10:20;101188.13;;;18.80;40.34
13011;BME280;6786;57.632;11.962;2023-11-21T03:12:50;101208.56;;;18.81;40.27
13011;BME280;6786;57.632;11.962;2023-11-21T03:15:18;101198.84;;;18.80;40.31
13011;BME280;6786;57.632;11.962;2023-11-21T03:17:46;101202.50;;;18.79;40.18
13011;BME280;6786;57.632;11.962;2023-11-21T03:20:16;101199.84;;;18.79;40.37
13011;BME280;6786;57.632;11.962;2023-11-21T03:22:44;101204.44;;;18.77;40.27
13011;BME280;6786;57.632;11.962;2023-11-21T03:25:13;101213.22;;;18.79;40.37
13011;BME280;6786;57.632;11.962;2023-11-21T03:27:41;101211.50;;;18.78;40.33
13011;BME280;6786;57.632;11.962;2023-11-21T03:30:12;101214.06;;;18.79;40.23
13011;BME280;6786;57.632;11.962;2023-11-21T03:32:41;101217.59;;;18.80;40.21
13011;BME280;6786;57.632;11.962;2023-11-21T03:35:09;101221.25;;;18.79;40.25
13011;BME280;6786;57.632;11.962;2023-11-21T03:37:37;101225.63;;;18.80;40.34
13011;BME280;6786;57.632;11.962;2023-11-21T03:40:09;101231.00;;;18.80;40.22
13011;BME280;6786;57.632;11.962;2023-11-21T03:42:39;101238.03;;;18.81;40.31
13011;BME280;6786;57.632;11.962;2023-11-21T03:45:09;101240.00;;;18.79;40.37
13011;BME280;6786;57.632;11.962;2023-11-21T03:47:41;101236.34;;;18.80;40.22
13011;BME280;6786;57.632;11.962;2023-11-21T03:50:10;101233.41;;;18.72;40.38
13011;BME280;6786;57.632;11.962;2023-11-21T03:52:38;101235.47;;;18.79;40.27
13011;BME280;6786;57.632;11.962;2023-11-21T03:55:07;101250.72;;;18.79;40.34
13011;BME280;6786;57.632;11.962;2023-11-21T03:57:37;101243.63;;;18.78;40.27
13011;BME280;6786;57.632;11.962;2023-11-21T04:00:06;101250.72;;;18.79;40.42
13011;BME280;6786;57.632;11.962;2023-11-21T04:02:37;101269.47;;;18.79;40.40
13011;BME280;6786;57.632;11.962;2023-11-21T04:05:08;101259.69;;;18.78;40.23
13011;BME280;6786;57.632;11.962;2023-11-21T04:07:36;101270.41;;;18.78;40.35
13011;BME280;6786;57.632;11.962;2023-11-21T04:10:06;101276.63;;;18.78;40.25
13011;BME280;6786;57.632;11.962;2023-11-21T04:12:36;101281.13;;;18.78;40.35
13011;BME280;6786;57.632;11.962;2023-11-21T04:15:04;101271.28;;;18.78;40.34
13011;BME280;6786;57.632;11.962;2023-11-21T04:17:35;101281.13;;;18.78;40.31
13011;BME280;6786;57.632;11.962;2023-11-21T04:20:05;101277.50;;;18.79;40.30
13011;BME280;6786;57.632;11.962;2023-11-21T04:22:38;101260.69;;;18.66;40.32
13011;BME280;6786;57.632;11.962;2023-11-21T04:25:09;101287.34;;;18.78;40.40
13011;BME280;6786;57.632;11.962;2023-11-21T04:27:39;101283.09;;;18.76;40.38
13011;BME280;6786;57.632;11.962;2023-11-21T04:30:08;101289.16;;;18.78;40.39
13011;BME280;6786;57.632;11.962;2023-11-21T04:32:37;101282.00;;;18.78;40.38
13011;BME280;6786;57.632;11.962;2023-11-21T04:35:06;101286.47;;;18.78;40.23
13011;BME280;6786;57.632;11.962;2023-11-21T04:37:35;101294.50;;;18.78;40.29
13011;BME280;6786;57.632;11.962;2023-11-21T04:40:06;101285.66;;;18.77;40.29
13011;BME280;6786;57.632;11.962;2023-11-21T04:42:35;101299.88;;;18.78;40.39
13011;BME280;6786;57.632;11.962;2023-11-21T04:45:05;101311.31;;;18.80;40.27
13011;BME280;6786;57.632;11.962;2023-11-21T04:47:36;101315.00;;;18.79;40.36
13011;BME280;6786;57.632;11.962;2023-11-21T04:50:05;101320.34;;;18.79;40.27
13011;BME280;6786;57.632;11.962;2023-11-21T04:52:34;101316.91;;;18.77;40.33
13011;BME280;6786;57.632;11.962;2023-11-21T04:55:02;101312.53;;;18.76;40.33
13011;BME280;6786;57.632;11.962;2023-11-21T04:57:35;101323.84;;;18.79;40.30
13011;BME280;6786;57.632;11.962;2023-11-21T05:00:03;101334.69;;;18.78;40.32
13011;BME280;6786;57.632;11.962;2023-11-21T05:02:33;101331.06;;;18.79;40.20
13011;BME280;6786;57.632;11.962;2023-11-21T05:05:02;101335.31;;;18.81;40.22
13011;BME280;6786;57.632;11.962;2023-11-21T05:07:33;101341.78;;;18.79;40.39
13011;BME280;6786;57.632;11.962;2023-11-21T05:10:04;101352.47;;;18.79;40.23
13011;BME280;6786;57.632;11.962;2023-11-21T05:12:36;101354.19;;;18.80;40.25
13011;BME280;6786;57.632;11.962;2023-11-21T05:15:06;101354.19;;;18.80;40.35
13011;BME280;6786;57.632;11.962;2023-11-21T05:17:38;101363.19;;;18.79;40.23
13011;BME280;6786;57.632;11.962;2023-11-21T05:20:09;101367.56;;;18.80;40.25
13011;BME280;6786;57.632;11.962;2023-11-21T05:22:38;101370.25;;;18.80;40.21
13011;BME280;6786;57.632;11.962;2023-11-21T05:25:07;101373.91;;;18.79;40.25
13011;BME280;6786;57.632;11.962;2023-11-21T05:27:37;101373.91;;;18.79;40.29
13011;BME280;6786;57.632;11.962;2023-11-21T05:30:06;101388.13;;;18.79;40.40
13011;BME280;6786;57.632;11.962;2023-11-21T05:32:36;101379.25;;;18.79;40.23
13011;BME280;6786;57.632;11.962;2023-11-21T05:35:04;101389.22;;;18.77;40.30
13011;BME280;6786;57.632;11.962;2023-11-21T05:37:36;101402.63;;;18.77;40.23
13011;BME280;6786;57.632;11.962;2023-11-21T05:40:06;101398.94;;;18.78;40.37
13011;BME280;6786;57.632;11.962;2023-11-21T05:42:36;101403.38;;;18.79;40.32
13011;BME280;6786;57.632;11.962;2023-11-21T05:45:06;101395.34;;;18.79;40.28
13011;BME280;6786;57.632;11.962;2023-11-21T05:47:37;101404.31;;;18.78;40.36
13011;BME280;6786;57.632;11.962;2023-11-21T05:50:07;101407.97;;;18.77;40.35
13011;BME280;6786;57.632;11.962;2023-11-21T05:52:39;101422.34;;;18.76;40.35
13011;BME280;6786;57.632;11.962;2023-11-21T05:55:08;101423.19;;;18.76;40.32
13011;BME280;6786;57.632;11.962;2023-11-21T05:57:39;101428.53;;;18.76;40.33
13011;BME280;6786;57.632;11.962;2023-11-21T06:00:09;101423.28;;;18.75;40.43
13011;BME280;6786;57.632;11.962;2023-11-21T06:02:42;101433.06;;;18.76;40.32
13011;BME280;6786;57.632;11.962;2023-11-21T06:05:10;101426.72;;;18.77;40.38
13011;BME280;6786;57.632;11.962;2023-11-21T06:07:39;101431.31;;;18.75;40.42
13011;BME280;6786;57.632;11.962;2023-11-21T06:10:08;101446.44;;;18.76;40.40
13011;BME280;6786;57.632;11.962;2023-11-21T06:12:39;101447.38;;;18.75;40.32
13011;BME280;6786;57.632;11.962;2023-11-21T06:15:10;101454.47;;;18.76;40.35
13011;BME280;6786;57.632;11.962;2023-11-21T06:17:41;101457.16;;;18.76;40.29
13011;BME280;6786;57.632;11.962;2023-11-21T06:20:12;101454.47;;;18.76;40.32
13011;BME280;6786;57.632;11.962;2023-11-21T06:22:42;101468.81;;;18.75;40.28
13011;BME280;6786;57.632;11.962;2023-11-21T06:25:11;101465.19;;;18.76;40.41
13011;BME280;6786;57.632;11.962;2023-11-21T06:27:42;101472.25;;;18.77;40.29
13011;BME280;6786;57.632;11.962;2023-11-21T06:30:12;101479.28;;;18.78;40.34
13011;BME280;6786;57.632;11.962;2023-11-21T06:32:42;101477.59;;;18.77;40.28
13011;BME280;6786;57.632;11.962;2023-11-21T06:35:14;101484.66;;;18.78;40.27
13011;BME280;6786;57.632;11.962;2023-11-21T06:37:44;101486.50;;;18.77;40.41
13011;BME280;6786;57.632;11.962;2023-11-21T06:40:16;101482.97;;;18.77;40.35
13011;BME280;6786;57.632;11.962;2023-11-21T06:42:52;101496.34;;;18.77;40.34
13011;BME280;6786;57.632;11.962;2023-11-21T06:45:20;101497.09;;;18.79;40.37
13011;BME280;6786;57.632;11.962;2023-11-21T06:47:51;101493.66;;;18.77;40.39
13011;BME280;6786;57.632;11.962;2023-11-21T06:50:26;101500.22;;;18.73;40.33
13011;BME280;6786;57.632;11.962;2023-11-21T06:52:54;101502.69;;;18.76;40.39
13011;BME280;6786;57.632;11.962;2023-11-21T06:55:31;101486.06;;;18.60;40.27
13011;BME280;6786;57.632;11.962;2023-11-21T06:58:03;101524.09;;;18.76;40.34
13011;BME280;6786;57.632;11.962;2023-11-21T07:00:32;101506.31;;;18.75;40.40
13011;BME280;6786;57.632;11.962;2023-11-21T07:03:00;101518.75;;;18.76;40.31
13011;BME280;6786;57.632;11.962;2023-11-21T07:05:33;101524.09;;;18.76;40.29
13011;BME280;6786;57.632;11.962;2023-11-21T07:08:05;101516.06;;;18.76;40.44
13011;BME280;6786;57.632;11.962;2023-11-21T07:10:35;101534.59;;;18.79;40.38
13011;BME280;6786;57.632;11.962;2023-11-21T07:13:06;101532.84;;;18.78;40.39
13011;BME280;6786;57.632;11.962;2023-11-21T07:15:36;101532.84;;;18.78;40.35
13011;BME280;6786;57.632;11.962;2023-11-21T07:18:04;101538.22;;;18.78;40.23
13011;BME280;6786;57.632;11.962;2023-11-21T07:20:34;101548.94;;;18.78;40.30
13011;BME280;6786;57.632;11.962;2023-11-21T07:23:03;101548.94;;;18.78;40.27
13011;BME280;6786;57.632;11.962;2023-11-21T07:25:32;101547.22;;;18.77;40.23
13011;BME280;6786;57.632;11.962;2023-11-21T07:28:00;101542.97;;;18.74;40.38
13011;BME280;6786;57.632;11.962;2023-11-21T07:30:30;101552.59;;;18.77;40.38
13011;BME280;6786;57.632;11.962;2023-11-21T07:32:59;101557.94;;;18.77;40.33
13011;BME280;6786;57.632;11.962;2023-11-21T07:35:27;101560.41;;;18.80;40.23
13011;BME280;6786;57.632;11.962;2023-11-21T07:37:55;101555.25;;;18.77;40.27
13011;BME280;6786;57.632;11.962;2023-11-21T07:40:25;101563.06;;;18.80;40.35
13011;BME280;6786;57.632;11.962;2023-11-21T07:42:57;101571.09;;;18.80;40.28
13011;BME280;6786;57.632;11.962;2023-11-21T07:45:26;101570.25;;;18.79;40.39
13011;BME280;6786;57.632;11.962;2023-11-21T07:47:57;101565.88;;;18.78;40.28
13011;BME280;6786;57.632;11.962;2023-11-21T07:50:25;101580.22;;;18.77;40.21
13011;BME280;6786;57.632;11.962;2023-11-21T07:52:54;101579.38;;;18.77;40.26
13011;BME280;6786;57.632;11.962;2023-11-21T07:55:24;101586.41;;;18.78;40.37
13011;BME280;6786;57.632;11.962;2023-11-21T07:57:52;101585.47;;;18.79;40.32
13011;BME280;6786;57.632;11.962;2023-11-21T08:00:20;101582.81;;;18.79;40.26
13011;BME280;6786;57.632;11.962;2023-11-21T08:02:51;101581.94;;;18.78;40.26
13011;BME280;6786;57.632;11.962;2023-11-21T08:05:20;101581.94;;;18.78;40.25
13011;BME280;6786;57.632;11.962;2023-11-21T08:07:58;101581.06;;;18.78;40.37
13011;BME280;6786;57.632;11.962;2023-11-21T08:10:26;101586.41;;;18.78;40.33
13011;BME280;6786;57.632;11.962;2023-11-21T08:12:54;101598.88;;;18.79;40.20
13011;BME280;6786;57.632;11.962;2023-11-21T08:15:23;101600.56;;;18.80;40.34
13011;BME280;6786;57.632;11.962;2023-11-21T08:17:52;101600.56;;;18.80;40.33
13011;BME280;6786;57.632;11.962;2023-11-21T08:20:21;101600.56;;;18.80;40.28
13011;BME280;6786;57.632;11.962;2023-11-21T08:22:51;101605.91;;;18.80;40.21
13011;BME280;6786;57.632;11.962;2023-11-21T08:25:20;101603.25;;;18.80;40.18
13011;BME280;6786;57.632;11.962;2023-11-21T08:27:49;101609.56;;;18.79;40.11
13011;BME280;6786;57.632;11.962;2023-11-21T08:30:17;101609.56;;;18.79;40.32
13011;BME280;6786;57.632;11.962;2023-11-21T08:32:46;101612.38;;;18.77;40.29
13011;BME280;6786;57.632;11.962;2023-11-21T08:35:15;101618.56;;;18.78;40.28
13011;BME280;6786;57.632;11.962;2023-11-21T08:37:45;101620.28;;;18.79;40.22
13011;BME280;6786;57.632;11.962;2023-11-21T08:40:14;101620.50;;;18.76;40.17
13011;BME280;6786;57.632;11.962;2023-11-21T08:42:44;101623.91;;;18.78;40.25
13011;BME280;6786;57.632;11.962;2023-11-21T08:45:13;101640.00;;;18.78;40.22
13011;BME280;6786;57.632;11.962;2023-11-21T08:47:41;101640.00;;;18.78;40.27
13011;BME280;6786;57.632;11.962;2023-11-21T08:50:11;101641.72;;;18.79;40.17
13011;BME280;6786;57.632;11.962;2023-11-21T08:52:40;101653.25;;;18.79;40.15
13011;BME280;6786;57.632;11.962;2023-11-21T08:55:10;101661.41;;;18.78;40.38
13011;BME280;6786;57.632;11.962;2023-11-21T08:57:40;101657.78;;;18.79;40.18
13011;BME280;6786;57.632;11.962;2023-11-21T09:00:09;101660.69;;;18.76;40.19
13011;BME280;6786;57.632;11.962;2023-11-21T09:02:38;101670.44;;;18.77;40.22
13011;BME280;6786;57.632;11.962;2023-11-21T09:05:09;101679.22;;;18.79;40.26
13011;BME280;6786;57.632;11.962;2023-11-21T09:07:39;101674.81;;;18.78;40.19
13011;BME280;6786;57.632;11.962;2023-11-21T09:10:10;101688.19;;;18.78;40.15
13011;BME280;6786;57.632;11.962;2023-11-21T09:12:38;101689.06;;;18.78;40.32
13011;BME280;6786;57.632;11.962;2023-11-21T09:15:08;101676.66;;;18.77;40.33
13011;BME280;6786;57.632;11.962;2023-11-21T09:17:38;101693.56;;;18.78;40.32
13011;BME280;6786;57.632;11.962;2023-11-21T09:20:08;101696.22;;;18.78;40.17
13011;BME280;6786;57.632;11.962;2023-11-21T09:22:37;101704.25;;;18.78;40.26
13011;BME280;6786;57.632;11.962;2023-11-21T09:25:06;101703.53;;;18.76;40.24
13011;BME280;6786;57.632;11.962;2023-11-21T09:27:36;101709.63;;;18.78;40.28
13011;BME280;6786;57.632;11.962;2023-11-21T09:30:06;101700.22;;;18.72;40.26
13011;BME280;6786;57.632;11.962;2023-11-21T09:32:37;101716.72;;;18.79;40.24
13011;BME280;6786;57.632;11.962;2023-11-21T09:35:08;101721.09;;;18.80;40.24
13011;BME280;6786;57.632;11.962;2023-11-21T09:37:37;101713.28;;;18.77;40.18
13011;BME280;6786;57.632;11.962;2023-11-21T09:40:10;101714.97;;;18.78;40.21
13011;BME280;6786;57.632;11.962;2023-11-21T09:42:49;101731.03;;;18.78;40.26
13011;BME280;6786;57.632;11.962;2023-11-21T09:45:25;101725.91;;;18.75;40.17
13011;BME280;6786;57.632;11.962;2023-11-21T09:47:54;101734.69;;;18.77;40.22
13011;BME280;6786;57.632;11.962;2023-11-21T09:50:23;101734.81;;;18.75;40.17
13011;BME280;6786;57.632;11.962;2023-11-21T09:53:00;101698.72;;;18.56;40.12
13011;BME280;6786;57.632;11.962;2023-11-21T09:55:34;101740.94;;;18.77;40.20
13011;BME280;6786;57.632;11.962;2023-11-21T09:58:05;101737.38;;;18.77;40.14
13011;BME280;6786;57.632;11.962;2023-11-21T10:00:34;101741.75;;;18.78;40.20
13011;BME280;6786;57.632;11.962;2023-11-21T10:03:03;101752.47;;;18.78;40.21
13011;BME280;6786;57.632;11.962;2023-11-21T10:05:31;101757.81;;;18.78;40.28
13011;BME280;6786;57.632;11.962;2023-11-21T10:08:01;101765.88;;;18.78;40.24
13011;BME280;6786;57.632;11.962;2023-11-21T10:10:32;101773.91;;;18.78;40.21
13011;BME280;6786;57.632;11.962;2023-11-21T10:13:02;101780.13;;;18.78;40.26
13011;BME280;6786;57.632;11.962;2023-11-21T10:15:34;101779.25;;;18.78;40.31
13011;BME280;6786;57.632;11.962;2023-11-21T10:18:03;101772.19;;;18.77;40.26
13011;BME280;6786;57.632;11.962;2023-11-21T10:20:33;101777.56;;;18.77;40.28
13011;BME280;6786;57.632;11.962;2023-11-21T10:23:01;101788.25;;;18.77;40.25
13011;BME280;6786;57.632;11.962;2023-11-21T10:25:30;101782.91;;;18.77;40.23
13011;BME280;6786;57.632;11.962;2023-11-21T10:28:00;101793.63;;;18.77;40.27
13011;BME280;6786;57.632;11.962;2023-11-21T10:30:37;101793.63;;;18.77;40.09
13011;BME280;6786;57.632;11.962;2023-11-21T10:33:07;101792.66;;;18.78;40.18
13011;BME280;6786;57.632;11.962;2023-11-21T10:35:42;101789.25;;;18.76;40.18
13011;BME280;6786;57.632;11.962;2023-11-21T10:38:13;101799.84;;;18.77;40.16
13011;BME280;6786;57.632;11.962;2023-11-21T10:40:42;101791.91;;;18.76;40.07
13011;BME280;6786;57.632;11.962;2023-11-21T10:43:14;101793.63;;;18.77;40.27
13011;BME280;6786;57.632;11.962;2023-11-21T10:45:44;101799.94;;;18.76;40.25
13011;BME280;6786;57.632;11.962;2023-11-21T10:48:14;101797.28;;;18.76;40.23
13011;BME280;6786;57.632;11.962;2023-11-21T10:50:44;101792.97;;;18.73;40.16
13011;BME280;6786;57.632;11.962;2023-11-21T10:53:13;101800.91;;;18.75;40.28
13011;BME280;6786;57.632;11.962;2023-11-21T10:55:42;101796.22;;;18.66;40.18
13011;BME280;6786;57.632;11.962;2023-11-21T10:58:13;101813.56;;;18.73;40.17
13011;BME280;6786;57.632;11.962;2023-11-21T11:00:43;101818.69;;;18.76;40.14
13011;BME280;6786;57.632;11.962;2023-11-21T11:03:13;101813.34;;;18.76;40.10
13011;BME280;6786;57.632;11.962;2023-11-21T11:05:44;101816.97;;;18.75;40.12
13011;BME280;6786;57.632;11.962;2023-11-21T11:08:21;101808.94;;;18.75;40.15
13011;BME280;6786;57.632;11.962;2023-11-21T11:10:55;101813.34;;;18.76;40.21
13011;BME280;6786;57.632;11.962;2023-11-21T11:13:23;101808.94;;;18.75;40.08
13011;BME280;6786;57.632;11.962;2023-11-21T11:15:58;101809.91;;;18.74;40.13
13011;BME280;6786;57.632;11.962;2023-11-21T11:18:28;101808.00;;;18.76;40.23
13011;BME280;6786;57.632;11.962;2023-11-21T11:21:01;101809.91;;;18.74;40.22
13011;BME280;6786;57.632;11.962;2023-11-21T11:23:46;101808.81;;;18.76;40.12
13011;BME280;6786;57.632;11.962;2023-11-21T11:26:26;101815.16;;;18.75;40.11
13011;BME280;6786;57.632;11.962;2023-11-21T11:29:05;101822.31;;;18.75;40.21
13011;BME280;6786;57.632;11.962;2023-11-21T11:31:54;101825.97;;;18.74;40.12
13011;BME280;6786;57.632;11.962;2023-11-21T11:34:28;101825.97;;;18.74;40.23
13011;BME280;6786;57.632;11.962;2023-11-21T11:37:01;101834.88;;;18.74;40.19
13011;BME280;6786;57.632;11.962;2023-11-21T11:39:34;101825.97;;;18.74;40.22
13011;BME280;6786;57.632;11.962;2023-11-21T11:42:04;101830.34;;;18.75;40.16
13011;BME280;6786;57.632;11.962;2023-11-21T11:44:49;101820.63;;;18.74;40.05
13011;BME280;6786;57.632;11.962;2023-11-21T11:47:23;101833.91;;;18.75;40.19
13011;BME280;6786;57.632;11.962;2023-11-21T11:50:05;101834.78;;;18.76;40.10
13011;BME280;6786;57.632;11.962;2023-11-21T11:52:42;101838.41;;;18.75;40.20
13011;BME280;6786;57.632;11.962;2023-11-21T11:55:11;101840.13;;;18.76;40.17
13011;BME280;6786;57.632;11.962;2023-11-21T11:57:42;101838.41;;;18.75;40.29
13011;BME280;6786;57.632;11.962;2023-11-21T12:00:13;101832.19;;;18.74;40.03
13011;BME280;6786;57.632;11.962;2023-11-21T12:02:47;101839.25;;;18.75;40.25
13011;BME280;6786;57.632;11.962;2023-11-21T12:05:17;101831.31;;;18.74;40.25
13011;BME280;6786;57.632;11.962;2023-11-21T12:07:48;101834.97;;;18.73;40.16
13011;BME280;6786;57.632;11.962;2023-11-21T12:10:18;101844.72;;;18.74;40.16
13011;BME280;6786;57.632;11.962;2023-11-21T12:12:48;101849.09;;;18.75;40.19
13011;BME280;6786;57.632;11.962;2023-11-21T12:15:19;101848.28;;;18.74;40.19
13011;BME280;6786;57.632;11.962;2023-11-21T12:17:50;101845.69;;;18.73;40.27
13011;BME280;6786;57.632;11.962;2023-11-21T12:20:19;101847.19;;;18.77;40.24
13011;BME280;6786;57.632;11.962;2023-11-21T12:22:49;101850.84;;;18.76;40.15
13011;BME280;6786;57.632;11.962;2023-11-21T12:25:19;101849.97;;;18.75;40.19
13011;BME280;6786;57.632;11.962;2023-11-21T12:27:49;101849.00;;;18.76;40.18
13011;BME280;6786;57.632;11.962;2023-11-21T12:30:19;101853.53;;;18.76;40.17
13011;BME280;6786;57.632;11.962;2023-11-21T12:32:51;101845.81;;;18.71;40.16
13011;BME280;6786;57.632;11.962;2023-11-21T12:35:21;101851.78;;;18.75;40.25
13011;BME280;6786;57.632;11.962;2023-11-21T12:37:51;101857.13;;;18.75;40.10
13011;BME280;6786;57.632;11.962;2023-11-21T12:40:20;101857.13;;;18.75;40.21
13011;BME280;6786;57.632;11.962;2023-11-21T12:42:52;101861.75;;;18.73;40.16
13011;BME280;6786;57.632;11.962;2023-11-21T12:45:23;101866.91;;;18.76;40.15
13011;BME280;6786;57.632;11.962;2023-11-21T12:47:55;101870.53;;;18.75;40.10
13011;BME280;6786;57.632;11.962;2023-11-21T12:50:28;101865.16;;;18.75;40.04
13011;BME280;6786;57.632;11.962;2023-11-21T12:52:59;101863.38;;;18.75;40.08
13011;BME280;6786;57.632;11.962;2023-11-21T12:55:30;101871.41;;;18.75;40.07
13011;BME280;6786;57.632;11.962;2023-11-21T12:58:01;101856.19;;;18.76;40.10
13011;BME280;6786;57.632;11.962;2023-11-21T13:00:37;101837.53;;;18.62;40.15
13011;BME280;6786;57.632;11.962;2023-11-21T13:03:08;101865.16;;;18.75;40.18
13011;BME280;6786;57.632;11.962;2023-11-21T13:05:40;101865.06;;;18.76;40.01